Time;durP1;ratioP1;P1;durP2;ratioP2;P2;SDS_P1;SDS_P2;PMS_P1;PMS_P2;Temp;Humidity;BMP_temperature;BMP_pressure;BME280_temperature;BME280_humidity;BME280_pressure;Samples;Min_cycle;Max_cycle;Signal;HPM_P1;HPM_P2
2022/01/24 00:02:16;;;;;;;41.60;18.47;;;;;;;-2.52;63.06;100938.72;5131652;27;20119;-71
2022/01/24 00:04:43;;;;;;;46.97;19.77;;;;;;;-2.54;63.13;100932.69;5133003;27;20073;-71
2022/01/24 00:07:09;;;;;;;45.03;20.10;;;;;;;-2.52;63.08;100938.72;5134529;27;20046;-73
2022/01/24 00:09:38;;;;;;;43.93;19.90;;;;;;;-2.60;63.12;100935.00;5131751;27;20039;-72
2022/01/24 00:12:20;;;;;;;42.53;18.90;;;;;;;-2.55;63.04;100944.41;5130044;27;20047;-70
2022/01/24 00:15:00;;;;;;;42.07;18.83;;;;;;;-2.55;63.13;100944.41;5132806;27;20088;-70
2022/01/24 00:28:17;;;;;;;41.27;17.77;;;;;;;-2.73;63.16;100945.34;5130385;27;20396;-72
2022/01/24 00:30:44;;;;;;;39.73;18.73;;;;;;;-2.66;63.15;100957.06;5127614;27;20051;-72
2022/01/24 00:33:10;;;;;;;42.57;17.40;;;;;;;-2.68;62.88;100951.03;5110369;27;20423;-72
2022/01/24 00:35:37;;;;;;;37.37;17.67;;;;;;;-2.63;63.00;100956.75;5132028;27;20415;-72
2022/01/24 00:38:03;;;;;;;38.80;17.73;;;;;;;-2.71;63.26;100946.00;5132005;27;20035;-72
2022/01/24 00:40:35;;;;;;;44.07;18.53;;;;;;;-2.74;63.11;100944.47;5133397;27;20051;-71
2022/01/24 00:43:02;;;;;;;46.20;18.87;;;;;;;-2.77;63.43;100952.84;5130667;27;20090;-70
2022/01/24 00:45:56;;;;;;;42.97;19.30;;;;;;;-2.77;63.15;100951.97;5131360;27;20588;-71
2022/01/24 00:56:11;;;;;;;44.47;19.67;;;;;;;-2.82;63.20;100949.78;5142816;27;20521;-71
2022/01/24 00:58:37;;;;;;;38.60;18.27;;;;;;;-2.86;63.24;100957.31;5123078;27;20526;-72
2022/01/24 01:01:05;;;;;;;40.67;18.37;;;;;;;-2.82;63.18;100956.97;5130213;27;20507;-71
2022/01/24 01:03:31;;;;;;;40.00;18.48;;;;;;;-2.80;63.23;100961.19;5134173;27;20042;-71
2022/01/24 01:06:06;;;;;;;43.70;19.47;;;;;;;-2.78;62.99;100959.19;5130297;27;20043;-71
2022/01/24 01:19:39;;;;;;;60.53;24.85;;;;;;;-2.69;62.83;100962.75;5128961;27;20500;-72
2022/01/24 01:22:09;;;;;;;49.00;23.30;;;;;;;-2.77;62.96;100960.88;5131900;27;20047;-70
2022/01/24 01:24:40;;;;;;;45.90;22.37;;;;;;;-2.74;63.00;100962.38;5130663;27;20054;-69
2022/01/24 01:27:16;;;;;;;55.00;23.00;;;;;;;-2.72;62.82;100963.06;5132593;27;20142;-70
2022/01/24 01:30:03;;;;;;;49.90;21.53;;;;;;;-2.78;63.04;100971.72;5129728;27;20547;-70
2022/01/24 01:32:49;;;;;;;43.63;19.40;;;;;;;-2.76;62.88;100957.19;5121611;27;20096;-70
2022/01/24 01:38:04;;;;;;;41.87;20.33;;;;;;;-2.77;62.75;100960.00;5129270;27;20054;-70
2022/01/24 01:57:11;;;;;;;47.43;22.73;;;;;;;-2.80;62.54;100981.75;5115827;27;20130;-69
2022/01/24 01:59:38;;;;;;;54.20;22.63;;;;;;;-2.82;62.75;100984.56;5127506;27;20035;-69
2022/01/24 02:02:04;;;;;;;45.77;21.73;;;;;;;-2.77;62.55;100993.00;5124274;27;20039;-68
2022/01/24 02:04:31;;;;;;;46.60;22.43;;;;;;;-2.78;62.45;100996.69;5129887;27;20046;-69
2022/01/24 02:06:57;;;;;;;48.10;20.80;;;;;;;-2.81;62.56;100994.31;5129962;27;20050;-69
2022/01/24 02:09:29;;;;;;;52.77;21.80;;;;;;;-2.78;62.70;100990.47;5129784;27;20141;-69
2022/01/24 02:11:55;;;;;;;45.40;22.07;;;;;;;-2.77;62.36;100984.13;5130177;27;20039;-69
2022/01/24 02:14:25;;;;;;;45.70;21.47;;;;;;;-2.86;62.58;100977.88;5130641;27;20096;-69
2022/01/24 02:17:01;;;;;;;50.13;21.87;;;;;;;-2.72;62.23;100992.53;5132311;27;20047;-69
2022/01/24 02:24:31;;;;;;;47.67;20.57;;;;;;;-2.79;62.09;100999.50;5129771;27;20053;-70
2022/01/24 02:26:59;;;;;;;44.97;20.07;;;;;;;-2.87;62.33;100990.44;5130551;28;20078;-68
2022/01/24 02:29:31;;;;;;;;;;;;;;;-2.83;62.31;100992.78;5131327;27;20039;-70
2022/01/24 02:31:57;;;;;;;43.67;19.27;;;;;;;-2.94;62.35;100986.69;5130549;28;19969;-70
2022/01/24 02:34:30;;;;;;;45.17;19.67;;;;;;;-2.96;62.49;100979.81;5130480;27;20507;-70
2022/01/24 02:37:03;;;;;;;45.70;20.87;;;;;;;-2.99;62.44;100972.94;5131322;27;20051;-70
2022/01/24 02:50:41;;;;;;;41.57;18.70;;;;;;;-3.08;62.51;100981.91;5129580;28;20483;-70
2022/01/24 02:53:14;;;;;;;38.80;19.20;;;;;;;-3.14;62.81;100984.22;5127608;28;20084;-70
2022/01/24 02:55:40;;;;;;;43.00;19.17;;;;;;;-3.07;62.37;100994.28;5123873;28;20134;-70
2022/01/24 02:58:07;;;;;;;41.83;18.60;;;;;;;-3.03;62.25;100982.28;5098884;28;20048;-71
2022/01/24 03:00:34;;;;;;;45.23;20.20;;;;;;;-3.16;62.28;100978.19;5130838;27;20104;-69
2022/01/24 03:03:03;;;;;;;39.83;18.95;;;;;;;-3.14;62.25;100980.69;5131052;28;20055;-70
2022/01/24 03:05:30;;;;;;;43.80;19.27;;;;;;;-3.21;62.51;100985.81;5127623;28;20472;-70
2022/01/24 03:07:56;;;;;;;45.20;20.40;;;;;;;-3.28;62.48;100976.72;5125557;28;20058;-71
2022/01/24 03:10:27;;;;;;;41.87;19.23;;;;;;;-3.22;62.46;100970.75;5126090;28;20195;-71
2022/01/24 03:13:32;;;;;;;38.47;18.53;;;;;;;-3.19;62.28;100966.94;5110734;28;20058;-70
2022/01/24 03:15:49;;;;;;;42.13;18.27;;;;;;;-3.22;62.46;100970.75;5121835;28;20475;-70
2022/01/24 03:18:15;;;;;;;41.13;18.93;;;;;;;-3.36;62.44;100972.16;5110382;28;20036;-71
2022/01/24 03:20:45;;;;;;;42.67;20.27;;;;;;;-3.44;62.77;100972.94;5130389;27;20047;-70
2022/01/24 03:23:11;;;;;;;46.87;20.33;;;;;;;-3.60;63.11;100973.59;5129590;28;20047;-69
2022/01/24 03:25:40;;;;;;;40.53;19.20;;;;;;;-3.65;63.32;100977.75;5125000;28;20088;-69
2022/01/24 03:28:07;;;;;;;42.97;19.47;;;;;;;-3.65;63.36;100983.09;5127707;28;20051;-69
2022/01/24 03:30:34;;;;;;;45.80;19.25;;;;;;;-3.65;63.38;100975.91;5129791;27;20642;-72
2022/01/24 03:33:02;;;;;;;41.30;19.17;;;;;;;-3.58;63.20;100974.31;5113144;27;20054;-70
2022/01/24 03:35:28;;;;;;;36.03;17.20;;;;;;;-3.55;63.15;100975.81;5125658;27;20054;-71
2022/01/24 03:37:54;;;;;;;43.60;19.63;;;;;;;-3.54;63.10;100972.16;5133669;27;20051;-71
2022/01/24 03:40:20;;;;;;;42.37;18.83;;;;;;;-3.57;63.27;100967.13;5132605;27;20050;-71
2022/01/24 03:42:48;;;;;;;44.13;19.73;;;;;;;-3.67;63.25;100964.53;5122789;27;20039;-71
2022/01/24 03:45:15;;;;;;;;;;;;;;;-3.64;63.48;100966.88;5132465;27;20051;-71
2022/01/24 03:48:02;;;;;;;42.15;18.27;;;;;;;-3.59;63.49;100969.97;5131626;27;19942;-71
2022/01/24 03:50:28;;;;;;;45.03;19.23;;;;;;;-3.53;63.15;100965.00;5130848;27;20574;-69
2022/01/24 03:52:55;;;;;;;39.80;18.37;;;;;;;-3.49;63.10;100952.97;5140270;27;20039;-70
2022/01/24 03:55:21;;;;;;;41.73;19.70;;;;;;;-3.46;63.14;100952.66;5133092;27;20039;-70
2022/01/24 03:57:52;;;;;;;43.10;19.00;;;;;;;-3.42;62.85;100949.53;5132373;27;20043;-70
2022/01/24 04:00:18;;;;;;;50.07;19.40;;;;;;;-3.37;62.69;100957.09;5126469;27;20116;-70
2022/01/24 04:02:44;;;;;;;45.50;18.93;;;;;;;-3.30;62.47;100960.81;5132990;27;20122;-71
2022/01/24 04:05:11;;;;;;;44.30;19.90;;;;;;;-3.23;62.37;100952.19;5133836;27;20066;-70
2022/01/24 04:07:37;;;;;;;48.87;21.23;;;;;;;-3.23;62.22;100960.22;5131565;27;20104;-69
2022/01/24 04:10:08;;;;;;;56.73;21.83;;;;;;;-3.19;62.15;100959.75;5123645;27;20059;-70
2022/01/24 04:12:38;;;;;;;51.83;20.27;;;;;;;-3.17;62.14;100960.44;5128733;27;20088;-69
2022/01/24 04:15:35;;;;;;;53.47;21.13;;;;;;;-3.21;61.97;100953.69;5133138;27;20525;-70
2022/01/24 04:18:33;;;;;;;54.43;20.67;;;;;;;-3.21;62.21;100966.25;5132159;27;20034;-71
2022/01/24 04:23:53;;;;;;;52.23;22.97;;;;;;;-3.27;62.12;100959.69;5134530;27;20043;-69
2022/01/24 04:26:20;;;;;;;51.77;21.37;;;;;;;-3.29;62.11;100962.50;5127473;27;20051;-70
2022/01/24 04:28:46;;;;;;;51.23;20.93;;;;;;;-3.31;62.06;100953.78;5131868;27;20051;-70
2022/01/24 04:31:15;;;;;;;54.60;22.33;;;;;;;-3.30;61.96;100966.16;5133885;27;20531;-69
2022/01/24 04:33:41;;;;;;;47.83;21.47;;;;;;;-3.32;62.08;100964.66;5133987;27;20043;-70
2022/01/24 04:36:07;;;;;;;46.40;20.90;;;;;;;-3.34;61.97;100975.50;5130541;27;20047;-69
2022/01/24 04:38:33;;;;;;;49.67;22.03;;;;;;;-3.37;62.15;100977.66;5118803;27;20071;-67
2022/01/24 04:41:04;;;;;;;39.90;19.77;;;;;;;-3.37;62.02;100974.97;5134309;27;20051;-71
2022/01/24 04:51:55;;;;;;;50.55;19.25;;;;;;;-3.45;62.29;100981.09;5125182;27;20445;-69
2022/01/24 04:54:42;;;;;;;41.37;19.33;;;;;;;-3.45;62.23;100971.25;5131564;27;20131;-69
2022/01/24 04:57:09;;;;;;;39.05;18.55;;;;;;;-3.46;61.90;100972.25;5112667;27;20042;-70
2022/01/24 04:59:37;;;;;;;44.80;19.50;;;;;;;-3.47;62.12;100970.56;5131060;27;20460;-69
2022/01/24 05:02:03;;;;;;;44.42;18.70;;;;;;;-3.47;61.83;100969.72;5146534;27;20506;-69
2022/01/24 05:04:31;;;;;;;38.88;17.25;;;;;;;-3.50;61.84;100968.19;5131197;27;20063;-67
2022/01/24 05:06:58;;;;;;;;;;;;;;;-3.52;61.98;100972.00;5132320;27;20043;-66
2022/01/24 05:09:25;;;;;;;39.97;18.53;;;;;;;-3.55;61.94;100981.16;5133568;27;20008;-67
2022/01/24 05:11:58;;;;;;;40.00;18.85;;;;;;;-3.54;62.00;100982.03;5129548;27;20873;-65
2022/01/24 05:25:25;;;;;;;38.10;17.50;;;;;;;-3.57;62.06;100989.38;5127664;27;20039;-66
2022/01/24 05:27:52;;;;;;;36.77;17.40;;;;;;;-3.58;62.14;100989.50;5128768;27;20503;-64
2022/01/24 05:30:18;;;;;;;36.97;17.17;;;;;;;-3.55;61.92;100983.84;5130356;27;20043;-66
2022/01/24 05:32:44;;;;;;;40.73;17.57;;;;;;;-3.58;62.01;100985.00;5130587;27;20055;-65
2022/01/24 05:35:12;;;;;;;34.10;16.10;;;;;;;-3.66;61.91;100968.88;5131805;27;20380;-66
2022/01/24 05:37:38;;;;;;;36.90;16.67;;;;;;;-3.69;61.88;100971.88;5129422;27;20047;-67
2022/01/24 05:40:06;;;;;;;35.37;16.43;;;;;;;-3.54;61.99;100984.69;5128958;27;20050;-67
2022/01/24 05:42:32;;;;;;;33.53;16.13;;;;;;;-3.52;61.87;100991.56;5128928;27;20066;-67
2022/01/24 05:45:00;;;;;;;36.93;16.33;;;;;;;-3.49;61.86;100995.78;5131220;27;20061;-66
2022/01/24 05:47:26;;;;;;;34.40;16.77;;;;;;;-3.49;61.93;100990.41;5129273;27;20047;-66
2022/01/24 05:49:52;;;;;;;34.07;16.70;;;;;;;-3.49;61.52;100988.59;5112304;27;20142;-68
2022/01/24 05:52:21;;;;;;;35.80;16.10;;;;;;;-3.41;61.57;100982.50;5126501;27;20443;-67
2022/01/24 05:54:47;;;;;;;44.43;18.67;;;;;;;-3.49;61.74;100996.63;5127652;27;20050;-66
2022/01/24 05:57:13;;;;;;;46.07;19.30;;;;;;;-3.45;62.17;100992.66;5128512;27;20108;-65
2022/01/24 05:59:39;;;;;;;40.00;17.70;;;;;;;-3.40;61.58;100994.00;5111625;27;20142;-66
2022/01/24 06:02:06;;;;;;;44.60;18.50;;;;;;;-3.37;61.58;100997.22;5130615;27;20154;-65
2022/01/24 06:04:32;;;;;;;35.30;16.77;;;;;;;-3.31;61.43;100990.41;5110526;27;20435;-66
2022/01/24 06:06:58;;;;;;;39.73;16.97;;;;;;;-3.35;61.51;100986.38;5121781;27;20316;-67
2022/01/24 06:09:26;;;;;;;40.83;17.63;;;;;;;-3.37;61.42;100997.22;5121292;27;20115;-67
2022/01/24 06:11:52;;;;;;;39.20;17.67;;;;;;;-3.32;61.37;100994.91;5134069;27;20082;-67
2022/01/24 06:14:19;;;;;;;37.23;17.20;;;;;;;-3.34;61.51;101006.78;5125544;27;20040;-67
2022/01/24 06:16:45;;;;;;;38.97;17.47;;;;;;;-3.38;61.35;100997.38;5131796;27;20047;-66
2022/01/24 06:19:11;;;;;;;45.43;19.63;;;;;;;-3.40;61.73;100992.19;5122699;27;20100;-66
2022/01/24 06:21:38;;;;;;;40.73;18.47;;;;;;;-3.43;61.37;100992.50;5093368;28;20048;-66
2022/01/24 06:24:05;;;;;;;38.63;17.80;;;;;;;-3.41;61.53;100977.13;5127869;27;20170;-66
2022/01/24 06:26:32;;;;;;;42.50;19.73;;;;;;;-3.32;61.22;100986.91;5130454;28;20092;-66
2022/01/24 06:28:58;;;;;;;42.33;19.07;;;;;;;-3.28;61.28;100990.09;5131615;28;20096;-67
2022/01/24 06:31:24;;;;;;;41.17;19.03;;;;;;;-3.31;61.10;100988.56;5111818;27;20048;-67
2022/01/24 06:33:52;;;;;;;38.10;17.67;;;;;;;-3.33;61.11;100987.06;5114442;28;20082;-67
2022/01/24 06:36:18;;;;;;;44.15;18.70;;;;;;;-3.33;60.90;100985.22;5124793;27;20078;-67
2022/01/24 06:38:44;;;;;;;37.33;17.80;;;;;;;-3.33;60.75;100992.41;5125097;28;20043;-65
2022/01/24 06:41:10;;;;;;;40.07;18.90;;;;;;;-3.34;61.06;100994.25;5130337;28;20122;-68
2022/01/24 06:43:38;;;;;;;42.33;19.90;;;;;;;-3.35;61.03;100991.72;5130423;28;20071;-67
2022/01/24 06:46:04;;;;;;;40.65;18.33;;;;;;;-3.29;60.95;100980.41;5130851;28;20062;-68
2022/01/24 06:48:30;;;;;;;41.37;17.83;;;;;;;-3.34;60.81;100975.50;5130815;27;20522;-68
2022/01/24 06:50:56;;;;;;;41.90;18.33;;;;;;;-3.33;60.71;100985.22;5110118;28;20061;-68
2022/01/24 06:53:22;;;;;;;36.90;17.40;;;;;;;-3.30;60.72;100990.25;5130505;27;20043;-67
2022/01/24 06:55:48;;;;;;;42.10;18.47;;;;;;;-3.31;60.78;100990.41;5128387;28;20165;-68
2022/01/24 06:58:15;;;;;;;38.23;18.23;;;;;;;-3.33;60.70;100985.22;5130446;28;20052;-67
2022/01/24 07:00:42;;;;;;;37.37;17.23;;;;;;;-3.25;60.38;100980.94;5127413;27;20039;-67
2022/01/24 07:03:08;;;;;;;37.88;17.10;;;;;;;-3.31;60.57;100985.91;5131718;27;20039;-67
2022/01/24 07:05:34;;;;;;;35.03;16.87;;;;;;;-3.33;60.69;100982.53;5130930;27;20072;-68
2022/01/24 07:08:00;;;;;;;41.57;18.33;;;;;;;-3.37;60.75;100978.50;5135753;27;20047;-67
2022/01/24 07:10:28;;;;;;;38.60;16.60;;;;;;;-3.27;60.50;100997.13;5134595;27;20556;-68
2022/01/24 07:12:54;;;;;;;39.30;17.98;;;;;;;-3.21;60.56;100991.16;5134185;27;20050;-68
2022/01/24 07:15:29;;;;;;;38.93;17.47;;;;;;;-3.18;60.32;100990.03;5134525;27;20039;-68
2022/01/24 07:20:23;;;;;;;38.75;17.10;;;;;;;-3.20;60.42;100992.88;5134765;27;20055;-68
2022/01/24 07:22:50;;;;;;;40.47;17.45;;;;;;;-3.15;60.23;100997.72;5133799;27;20622;-68
2022/01/24 07:25:16;;;;;;;38.20;18.13;;;;;;;-3.18;60.27;100993.53;5134669;27;20047;-68
2022/01/24 07:27:42;;;;;;;38.97;16.43;;;;;;;-3.19;60.44;100989.19;5132687;27;20104;-71
2022/01/24 07:30:09;;;;;;;37.40;17.80;;;;;;;-3.22;60.45;100985.97;5126658;27;20048;-70
2022/01/24 07:32:35;;;;;;;37.40;17.80;;;;;;;-3.16;60.37;100991.56;5148686;27;20050;-71
2022/01/24 07:35:03;;;;;;;35.87;17.30;;;;;;;-3.29;60.62;100985.75;5136659;27;20090;-70
2022/01/24 07:37:29;;;;;;;37.83;18.30;;;;;;;-3.34;60.65;100980.88;5133251;27;20130;-69
2022/01/24 07:39:56;;;;;;;39.90;17.87;;;;;;;-3.21;60.66;100985.81;5133928;27;20059;-71
2022/01/24 07:43:09;;;;;;;37.47;17.48;;;;;;;-3.18;60.32;100984.66;5114857;27;21180;-72
2022/01/24 07:45:09;;;;;;;37.63;16.63;;;;;;;-3.17;60.13;100989.88;5112545;27;20516;-72
2022/01/24 07:47:35;;;;;;;34.37;16.87;;;;;;;-3.20;60.25;100989.34;5136786;27;20051;-72
2022/01/24 07:50:03;;;;;;;37.53;16.40;;;;;;;-3.15;60.10;100987.88;5134851;27;20495;-72
2022/01/24 07:52:29;;;;;;;35.90;16.07;;;;;;;-3.14;60.21;100989.56;5129469;27;20069;-71
2022/01/24 07:54:55;;;;;;;37.27;17.83;;;;;;;-3.11;60.06;100991.09;5131809;27;20050;-73
2022/01/24 07:57:21;;;;;;;34.90;16.87;;;;;;;-3.18;60.03;100963.25;5128021;27;20537;-73
2022/01/24 07:59:47;;;;;;;40.33;18.03;;;;;;;-3.01;59.92;100980.28;5112919;28;20035;-73
2022/01/24 08:02:15;;;;;;;39.37;18.43;;;;;;;-3.02;59.92;100975.94;5132688;27;20138;-74
2022/01/24 08:04:44;;;;;;;38.22;17.48;;;;;;;-3.02;59.77;100981.28;5133153;27;20047;-73
2022/01/24 08:07:12;;;;;;;40.20;17.90;;;;;;;-3.00;59.80;100984.66;5125469;27;20039;-73
2022/01/24 08:09:38;;;;;;;40.93;18.00;;;;;;;-3.00;60.02;100981.97;5121940;27;20125;-73
2022/01/24 08:12:06;;;;;;;38.90;18.20;;;;;;;-3.02;60.03;100974.09;5135040;27;20190;-73
2022/01/24 08:14:33;;;;;;;41.50;18.47;;;;;;;-2.98;59.88;100974.63;5133209;27;20051;-73
2022/01/24 08:17:03;;;;;;;44.42;18.60;;;;;;;-2.93;59.82;100977.66;5117396;27;20491;-73
2022/01/24 08:19:34;;;;;;;44.33;17.87;;;;;;;-3.05;59.82;100963.69;5131626;27;20519;-73
2022/01/24 08:22:04;;;;;;;40.87;17.87;;;;;;;-2.94;59.97;100985.84;5134520;27;20100;-74
2022/01/24 08:24:32;;;;;;;47.87;21.80;;;;;;;-2.96;59.83;100985.19;5132039;27;20047;-74
2022/01/24 08:26:58;;;;;;;57.80;23.03;;;;;;;-2.98;60.06;100985.31;5121295;27;20051;-74
2022/01/24 08:29:24;;;;;;;69.37;25.40;;;;;;;-2.89;60.02;100995.09;5132937;27;20035;-73
2022/01/24 08:31:53;;;;;;;66.43;25.23;;;;;;;-2.88;59.85;100993.25;5134515;27;20055;-72
2022/01/24 08:34:20;;;;;;;57.07;24.10;;;;;;;-2.88;60.12;100988.75;5131789;27;20058;-74
2022/01/24 08:36:49;;;;;;;54.13;23.53;;;;;;;-2.83;59.90;100987.44;5134051;27;20050;-74
2022/01/24 08:39:16;;;;;;;54.30;23.77;;;;;;;-2.84;60.00;100978.53;5134178;27;20392;-73
2022/01/24 08:46:47;;;;;;;54.90;23.30;;;;;;;-3.01;60.31;100957.03;5120488;27;20084;-73
2022/01/24 08:49:16;;;;;;;64.10;25.27;;;;;;;-2.91;60.25;100972.97;5133055;27;20042;-72
2022/01/24 08:51:42;;;;;;;59.13;25.20;;;;;;;-2.88;60.19;100979.88;5128065;27;20039;-73
2022/01/24 08:54:09;;;;;;;68.37;28.23;;;;;;;-2.83;60.33;100982.91;5128127;27;20050;-72
2022/01/24 08:56:36;;;;;;;61.80;28.70;;;;;;;-2.79;60.42;100978.94;5133661;27;20058;-73
2022/01/24 08:59:05;;;;;;;71.50;28.70;;;;;;;-2.74;60.18;100978.44;5133497;27;20051;-72
2022/01/24 09:01:32;;;;;;;62.37;25.77;;;;;;;-2.70;60.10;100974.47;5131655;27;20135;-72
2022/01/24 09:03:58;;;;;;;70.90;27.40;;;;;;;-2.66;59.91;100977.66;5132601;27;20054;-72
2022/01/24 09:06:24;;;;;;;61.47;26.40;;;;;;;-2.67;60.00;100965.25;5130921;27;20230;-72
2022/01/24 09:08:56;;;;;;;53.47;25.17;;;;;;;-2.63;60.08;100969.31;5122195;27;20515;-73
2022/01/24 09:11:22;;;;;;;59.90;26.50;;;;;;;-2.66;60.04;100965.09;5117921;27;20130;-72
2022/01/24 09:13:48;;;;;;;72.87;30.10;;;;;;;-2.62;60.07;100963.78;5132451;27;20050;-73
2022/01/24 09:16:15;;;;;;;83.57;31.37;;;;;;;-2.64;60.22;100959.59;5132560;27;20576;-73
2022/01/24 09:18:41;;;;;;;66.15;29.15;;;;;;;-2.68;60.12;100956.41;5133128;27;20136;-73
2022/01/24 09:21:08;;;;;;;75.10;29.57;;;;;;;-2.67;60.30;100959.91;5132463;27;20047;-73
2022/01/24 09:23:34;;;;;;;87.47;30.07;;;;;;;-2.72;60.48;100953.19;5143560;27;20511;-71
2022/01/24 09:26:00;;;;;;;71.43;29.07;;;;;;;-2.73;60.40;100948.84;5131712;27;20047;-72
2022/01/24 09:28:26;;;;;;;67.27;29.70;;;;;;;-2.71;60.51;100946.00;5132795;27;20043;-72
2022/01/24 09:30:53;;;;;;;74.27;30.47;;;;;;;-2.68;60.45;100948.38;5131742;27;20131;-72
2022/01/24 09:33:20;;;;;;;65.10;29.07;;;;;;;-2.65;60.21;100945.38;5132689;27;20138;-73
2022/01/24 09:35:52;;;;;;;63.67;28.30;;;;;;;-2.60;60.18;100947.56;5130555;27;20059;-73
2022/01/24 09:38:24;;;;;;;66.20;29.27;;;;;;;-2.74;60.54;100933.78;5130868;27;20062;-72
2022/01/24 09:40:51;;;;;;;69.43;27.55;;;;;;;-2.68;60.69;100943.00;5129646;27;20054;-73
2022/01/24 09:43:17;;;;;;;71.22;28.13;;;;;;;-2.66;60.53;100940.16;5131990;27;20473;-70
2022/01/24 09:45:43;;;;;;;69.70;27.57;;;;;;;-2.66;60.35;100935.66;5132461;27;20134;-72
2022/01/24 09:48:11;;;;;;;69.03;27.53;;;;;;;-2.59;60.30;100934.00;5132166;27;20051;-71
2022/01/24 09:50:38;;;;;;;64.10;29.55;;;;;;;-2.61;60.22;100927.97;5132663;27;20096;-71
2022/01/24 09:53:05;;;;;;;64.63;30.63;;;;;;;-2.61;59.98;100937.84;5127690;27;20043;-70
2022/01/24 09:55:31;;;;;;;67.50;29.67;;;;;;;-2.60;60.16;100931.50;5112195;27;20096;-71
2022/01/24 09:57:57;;;;;;;64.30;28.67;;;;;;;-2.64;60.30;100930.16;5112365;28;20079;-71
2022/01/24 10:00:26;;;;;;;72.97;31.40;;;;;;;-2.66;60.18;100922.25;5115121;27;20041;-72
2022/01/24 10:03:01;;;;;;;77.13;31.30;;;;;;;-2.63;60.16;100926.47;5129537;27;20069;-72
2022/01/24 10:05:33;;;;;;;70.40;31.13;;;;;;;-2.70;60.35;100926.25;5131679;27;20525;-73
2022/01/24 10:08:05;;;;;;;83.10;32.63;;;;;;;-2.71;60.13;100919.22;5132280;27;20039;-74
2022/01/24 10:10:34;;;;;;;71.47;29.20;;;;;;;-2.65;60.26;100915.09;5130989;27;20051;-73
2022/01/24 10:19:08;;;;;;;63.17;28.20;;;;;;;-2.61;60.12;100914.56;5115920;27;20217;-72
2022/01/24 10:21:42;;;;;;;59.20;28.00;;;;;;;-2.64;60.13;100906.88;5121056;27;20115;-73
2022/01/24 10:24:12;;;;;;;73.50;29.67;;;;;;;-2.66;60.30;100908.88;5114765;27;20050;-71
2022/01/24 10:26:39;;;;;;;69.93;29.37;;;;;;;-2.81;60.35;100892.59;5131962;27;20082;-72
2022/01/24 10:29:11;;;;;;;67.27;28.93;;;;;;;-2.67;60.53;100904.53;5130902;28;20047;-71
2022/01/24 10:31:45;;;;;;;65.00;28.30;;;;;;;-2.64;60.54;100900.69;5132063;28;20701;-72
2022/01/24 10:34:35;;;;;;;72.30;29.23;;;;;;;-2.61;60.23;100905.72;5128914;28;20070;-71
2022/01/24 10:37:02;;;;;;;66.97;28.03;;;;;;;-2.65;60.23;100907.88;5113143;28;20070;-72
2022/01/24 10:39:43;;;;;;;63.13;27.50;;;;;;;-2.72;60.37;100896.13;5131659;27;20083;-72
2022/01/24 10:44:54;;;;;;;64.33;27.10;;;;;;;-2.68;60.25;100896.63;5127679;27;20116;-70
2022/01/24 10:47:23;;;;;;;64.60;28.05;;;;;;;-2.62;60.19;100902.19;5135962;27;20047;-72
2022/01/24 10:49:50;;;;;;;69.23;28.57;;;;;;;-2.63;60.36;100895.16;5135606;27;20051;-73
2022/01/24 10:52:19;;;;;;;71.43;27.02;;;;;;;-2.62;60.53;100893.34;5136464;27;20043;-73
2022/01/24 10:54:49;;;;;;;62.63;26.27;;;;;;;-2.65;60.49;100889.13;5135425;27;20074;-72
2022/01/24 10:57:23;;;;;;;68.07;27.97;;;;;;;-2.68;60.41;100876.06;5134008;27;20146;-73
2022/01/24 10:59:49;;;;;;;71.27;27.73;;;;;;;-2.69;60.38;100870.84;5135114;27;20423;-73
2022/01/24 11:02:17;;;;;;;65.07;27.47;;;;;;;-2.64;60.61;100869.38;5134976;27;20089;-71
2022/01/24 11:04:43;;;;;;;65.22;26.52;;;;;;;-2.59;60.39;100868.91;5136215;27;20045;-73
2022/01/24 11:07:10;;;;;;;64.27;28.00;;;;;;;-2.56;60.36;100871.25;5136374;27;20104;-72
2022/01/24 11:09:40;;;;;;;73.77;27.63;;;;;;;-2.54;60.23;100863.88;5133475;27;20063;-73
2022/01/24 11:12:11;;;;;;;62.93;28.13;;;;;;;-2.58;60.19;100849.16;5130212;27;20043;-71
2022/01/24 11:14:38;;;;;;;62.03;27.40;;;;;;;-2.48;60.15;100862.41;5132507;27;20145;-71
2022/01/24 11:17:06;;;;;;;56.95;26.08;;;;;;;-2.42;59.93;100859.91;5133908;27;20067;-71
2022/01/24 11:19:41;;;;;;;57.80;26.10;;;;;;;-2.48;59.79;100857.91;5129366;27;20040;-72
2022/01/24 11:22:19;;;;;;;65.07;27.83;;;;;;;-2.46;60.01;100860.38;5127740;27;20426;-72
2022/01/24 11:24:52;;;;;;;59.00;26.92;;;;;;;-2.47;59.73;100856.88;5135650;27;20103;-71
2022/01/24 11:27:21;;;;;;;64.67;27.77;;;;;;;-2.44;59.81;100856.56;5134576;27;20035;-72
2022/01/24 11:29:49;;;;;;;59.60;26.63;;;;;;;-2.42;60.00;100854.56;5133520;27;20387;-70
2022/01/24 11:32:23;;;;;;;62.27;25.97;;;;;;;-2.45;59.80;100848.69;5135848;27;20055;-72
2022/01/24 11:37:39;;;;;;;67.40;27.90;;;;;;;-2.40;59.99;100858.91;5134586;27;20043;-72
2022/01/24 11:40:09;;;;;;;59.57;26.63;;;;;;;-2.42;59.72;100851.88;5134788;27;20193;-72
2022/01/24 11:42:39;;;;;;;58.17;25.77;;;;;;;-2.40;59.71;100845.50;5134922;27;20049;-73
2022/01/24 11:45:12;;;;;;;53.03;23.47;;;;;;;-2.54;59.43;100823.72;5135156;27;20047;-71
2022/01/24 11:47:40;;;;;;;54.17;23.30;;;;;;;-2.60;59.52;100840.44;5132764;27;20050;-70
2022/01/24 11:50:27;;;;;;;50.10;22.38;;;;;;;-2.59;59.19;100829.53;5131984;27;20055;-73
2022/01/24 11:52:56;;;;;;;50.23;22.00;;;;;;;-2.36;58.96;100841.50;5132297;27;20047;-72
2022/01/24 11:55:34;;;;;;;44.63;21.70;;;;;;;-2.24;58.13;100834.00;5129216;27;20466;-70
2022/01/24 11:58:04;;;;;;;42.37;20.73;;;;;;;-2.37;58.09;100826.44;5129294;27;20118;-72
2022/01/24 12:00:38;;;;;;;43.43;21.00;;;;;;;-2.58;58.44;100817.00;5132216;27;20445;-72
2022/01/24 12:03:15;;;;;;;43.17;20.50;;;;;;;-2.67;58.98;100816.16;5114651;27;20051;-71
2022/01/24 12:05:43;;;;;;;45.75;21.15;;;;;;;-2.68;58.72;100817.16;5132421;27;20035;-72
2022/01/24 12:08:11;;;;;;;41.53;19.53;;;;;;;-2.69;58.77;100814.63;5133572;27;20104;-72
2022/01/24 12:10:44;;;;;;;47.22;20.48;;;;;;;-2.63;58.86;100811.31;5134950;27;20078;-72
2022/01/24 12:13:18;;;;;;;37.47;18.63;;;;;;;-2.54;58.06;100798.78;5133420;27;20134;-72
2022/01/24 12:16:00;;;;;;;39.47;18.13;;;;;;;-2.37;57.70;100803.16;5133814;27;20054;-72
2022/01/24 12:18:58;;;;;;;41.03;18.90;;;;;;;-2.38;57.42;100797.97;5133785;27;20046;-72
2022/01/24 12:21:27;;;;;;;43.83;19.43;;;;;;;-2.33;57.49;100790.28;5124966;27;20424;-71
2022/01/24 12:23:55;;;;;;;41.50;18.50;;;;;;;-2.35;57.38;100792.25;5134742;27;20074;-69
2022/01/24 12:26:29;;;;;;;39.90;19.57;;;;;;;-2.41;57.37;100799.16;5100646;27;20046;-70
2022/01/24 12:28:59;;;;;;;39.40;18.40;;;;;;;-2.47;57.57;100797.09;5131802;27;20436;-69
2022/01/24 12:31:29;;;;;;;41.43;19.33;;;;;;;-2.53;57.76;100801.28;5133138;27;20039;-70
2022/01/24 12:34:11;;;;;;;42.70;19.63;;;;;;;-2.72;58.27;100789.84;5134282;27;20043;-71
2022/01/24 12:37:04;;;;;;;43.93;20.00;;;;;;;-2.63;58.15;100788.03;5129864;27;20074;-71
2022/01/24 12:39:50;;;;;;;44.50;19.43;;;;;;;-2.55;57.95;100794.44;5131171;27;20518;-70
2022/01/24 12:42:31;;;;;;;41.20;18.83;;;;;;;-2.64;57.52;100783.69;5142912;27;20046;-71
2022/01/24 12:47:56;;;;;;;47.73;19.10;;;;;;;-2.67;57.78;100804.59;5141922;27;20047;-70
2022/01/24 12:50:23;;;;;;;40.73;18.87;;;;;;;-2.66;57.78;100806.25;5134538;27;20044;-69
2022/01/24 12:52:49;;;;;;;42.10;19.50;;;;;;;-2.75;58.02;100806.25;5132468;27;20078;-67
2022/01/24 12:55:15;;;;;;;42.93;19.27;;;;;;;-2.67;57.74;100804.59;5114219;27;20047;-68
2022/01/24 12:57:42;;;;;;;44.73;19.40;;;;;;;-2.77;57.88;100804.72;5131000;27;20042;-66
2022/01/24 13:00:13;;;;;;;46.60;19.85;;;;;;;-2.88;58.44;100796.00;5130841;27;20047;-68
2022/01/24 13:02:39;;;;;;;45.10;20.50;;;;;;;-2.90;58.38;100800.66;5113991;27;20446;-67
2022/01/24 13:05:08;;;;;;;48.23;22.07;;;;;;;-2.92;58.61;100796.50;5124031;27;20051;-66
2022/01/24 13:07:35;;;;;;;50.40;25.30;;;;;;;-2.94;58.87;100804.66;5130980;27;20046;-67
2022/01/24 13:10:04;;;;;;;54.30;26.00;;;;;;;-3.00;58.98;100795.44;5132257;27;20139;-65